createdAt,value
2019-03-16T00:00:12.172Z,6.10
2019-03-16T00:02:41.839Z,6.20
2019-03-16T00:05:11.646Z,6.10
2019-03-16T00:07:41.314Z,6.20
2019-03-16T00:10:11.008Z,6.20
2019-03-16T00:12:40.655Z,6.20
2019-03-16T00:15:10.484Z,6.20
2019-03-16T00:17:40.119Z,6.20
2019-03-16T00:20:09.864Z,6.20
2019-03-16T00:22:39.471Z,6.10
2019-03-16T00:25:09.303Z,6.10
2019-03-16T00:27:39.026Z,6.10
2019-03-16T00:30:08.782Z,6.10
2019-03-16T00:32:38.432Z,6.10
2019-03-16T00:35:08.134Z,6.00
2019-03-16T00:37:38.746Z,6.00
2019-03-16T00:40:08.522Z,5.90
2019-03-16T00:42:38.146Z,6.00
2019-03-16T00:45:08.194Z,5.90
2019-03-16T00:47:37.819Z,5.90
2019-03-16T00:50:08.185Z,5.90
2019-03-16T00:52:37.826Z,5.70
2019-03-16T00:55:07.894Z,5.60
2019-03-16T00:57:37.511Z,5.60
2019-03-16T01:00:08.370Z,5.50
2019-03-16T01:02:38.090Z,5.40
2019-03-16T01:05:10.430Z,5.30
2019-03-16T01:07:40.186Z,5.40
2019-03-16T01:10:11.047Z,5.30
2019-03-16T01:12:40.666Z,5.40
2019-03-16T01:15:10.657Z,5.40
2019-03-16T01:17:40.286Z,5.30
2019-03-16T01:20:09.965Z,5.30
2019-03-16T01:22:39.614Z,5.30
2019-03-16T01:25:09.264Z,5.30
2019-03-16T01:27:38.859Z,5.20
2019-03-16T01:30:11.910Z,5.30
2019-03-16T01:32:43.531Z,5.30
2019-03-16T01:35:13.159Z,5.40
2019-03-16T01:37:43.374Z,5.40
2019-03-16T01:40:13.077Z,5.30
2019-03-16T01:42:42.790Z,5.30
2019-03-16T01:45:12.565Z,5.30
2019-03-16T01:47:42.163Z,5.30
2019-03-16T01:50:12.069Z,5.20
2019-03-16T01:52:41.708Z,5.20
2019-03-16T01:55:11.453Z,5.20
2019-03-16T01:57:41.101Z,5.30
2019-03-16T02:00:11.160Z,5.30
2019-03-16T02:02:53.820Z,5.20
2019-03-16T02:05:12.283Z,5.20
2019-03-16T02:07:41.910Z,5.10
2019-03-16T02:10:11.619Z,5.00
2019-03-16T02:12:41.348Z,4.90
2019-03-16T02:15:11.103Z,4.90
2019-03-16T02:17:40.761Z,4.90
2019-03-16T02:20:10.464Z,5.00
2019-03-16T02:22:40.090Z,5.00
2019-03-16T02:25:09.919Z,5.00
2019-03-16T02:27:39.660Z,5.00
2019-03-16T02:30:09.805Z,5.00
2019-03-16T02:32:39.443Z,4.90
2019-03-16T02:35:09.396Z,4.80
2019-03-16T02:37:39.029Z,4.70
2019-03-16T02:40:08.930Z,4.80
2019-03-16T02:42:38.556Z,4.70
2019-03-16T02:45:08.335Z,4.70
2019-03-16T02:47:37.972Z,4.70
2019-03-16T02:50:07.760Z,4.80
2019-03-16T02:52:37.415Z,4.70
2019-03-16T02:55:07.270Z,4.60
2019-03-16T02:57:36.921Z,4.60
2019-03-16T03:00:07.947Z,4.50
2019-03-16T03:02:37.599Z,4.50
2019-03-16T03:05:08.887Z,4.60
2019-03-16T03:07:38.506Z,4.50
2019-03-16T03:10:08.483Z,4.50
2019-03-16T03:12:38.089Z,4.60
2019-03-16T03:15:07.820Z,4.50
2019-03-16T03:17:37.499Z,4.50
2019-03-16T03:20:07.244Z,4.50
2019-03-16T03:22:37.039Z,4.60
2019-03-16T03:25:06.904Z,4.50
2019-03-16T03:27:36.612Z,4.40
2019-03-16T03:30:07.623Z,4.40
2019-03-16T03:32:37.359Z,4.40
2019-03-16T03:35:07.277Z,4.40
2019-03-16T03:37:36.956Z,4.40
2019-03-16T03:40:06.709Z,4.40
2019-03-16T03:42:36.388Z,4.40
2019-03-16T03:45:06.401Z,4.30
2019-03-16T03:47:36.092Z,4.30
2019-03-16T03:50:06.885Z,4.50
2019-03-16T03:52:36.632Z,4.50
2019-03-16T03:55:07.124Z,4.50
2019-03-16T03:57:36.783Z,4.50
2019-03-16T04:00:07.434Z,4.50
2019-03-16T04:02:37.040Z,4.60
2019-03-16T04:05:07.067Z,4.60
2019-03-16T04:07:36.953Z,4.60
2019-03-16T04:10:07.492Z,4.60
2019-03-16T04:12:37.142Z,4.60
2019-03-16T04:15:06.990Z,4.60
2019-03-16T04:17:36.634Z,4.60
2019-03-16T04:20:07.087Z,4.60
2019-03-16T04:22:36.846Z,4.70
2019-03-16T04:25:06.484Z,4.70
2019-03-16T04:27:36.136Z,4.70
2019-03-16T04:30:06.048Z,4.70
2019-03-16T04:32:35.676Z,4.80
2019-03-16T04:35:05.403Z,4.60
2019-03-16T04:37:35.033Z,4.60
2019-03-16T04:40:05.092Z,4.50
2019-03-16T04:42:34.811Z,4.60
2019-03-16T04:45:04.572Z,4.50
2019-03-16T04:47:34.178Z,4.50
2019-03-16T04:50:03.896Z,4.60
2019-03-16T04:52:33.564Z,4.60
2019-03-16T04:55:03.158Z,4.60
2019-03-16T04:57:32.781Z,4.50
2019-03-16T05:00:02.428Z,4.40
2019-03-16T05:02:32.060Z,4.40
2019-03-16T05:05:01.663Z,4.30
2019-03-16T05:07:32.255Z,4.40
2019-03-16T05:10:01.886Z,4.30
2019-03-16T05:12:31.512Z,4.30
2019-03-16T05:15:01.143Z,4.20
2019-03-16T05:17:30.790Z,4.20
2019-03-16T05:20:00.462Z,4.30
2019-03-16T05:22:30.098Z,4.30
2019-03-16T05:24:59.734Z,4.30
2019-03-16T05:27:29.470Z,4.40
2019-03-16T05:29:59.134Z,4.20
2019-03-16T05:32:47.740Z,4.30
2019-03-16T05:35:17.384Z,4.30
2019-03-16T05:37:47.024Z,4.30
2019-03-16T05:40:16.631Z,4.40
2019-03-16T05:42:46.270Z,4.40
2019-03-16T05:45:15.941Z,4.40
2019-03-16T05:47:45.533Z,4.40
2019-03-16T05:50:15.211Z,4.30
2019-03-16T05:52:44.799Z,4.30
2019-03-16T05:55:14.433Z,4.30
2019-03-16T05:57:44.071Z,4.40
2019-03-16T06:00:13.799Z,4.30
2019-03-16T06:02:43.613Z,4.30
2019-03-16T06:05:13.440Z,4.40
2019-03-16T06:07:43.155Z,4.40
2019-03-16T06:10:13.371Z,4.40
2019-03-16T06:12:46.319Z,4.50
2019-03-16T06:15:14.269Z,4.50
2019-03-16T06:17:43.862Z,4.50
2019-03-16T06:20:13.641Z,4.60
2019-03-16T06:22:43.231Z,4.60
2019-03-16T06:25:12.979Z,4.50
2019-03-16T06:27:42.635Z,4.50
2019-03-16T06:30:12.510Z,4.40
2019-03-16T06:32:42.116Z,4.50
2019-03-16T06:35:23.941Z,4.60
2019-03-16T06:37:43.220Z,4.60
2019-03-16T06:40:13.228Z,4.50
2019-03-16T06:42:42.920Z,4.60
2019-03-16T06:45:12.970Z,4.70
2019-03-16T06:47:42.592Z,4.60
2019-03-16T06:50:12.717Z,4.70
2019-03-16T06:52:42.335Z,4.90
2019-03-16T06:55:12.934Z,4.80
2019-03-16T06:57:42.581Z,5.30
2019-03-16T07:00:12.438Z,5.30
2019-03-16T07:02:42.037Z,5.20
2019-03-16T07:05:11.762Z,5.20
2019-03-16T07:07:41.383Z,5.30
2019-03-16T07:10:11.104Z,5.30
2019-03-16T07:12:41.080Z,5.30
2019-03-16T07:15:10.692Z,5.30
2019-03-16T07:17:40.281Z,5.20
2019-03-16T07:20:09.971Z,5.10
2019-03-16T07:22:39.620Z,5.20
2019-03-16T07:25:10.573Z,5.20
2019-03-16T07:27:40.397Z,5.40
2019-03-16T07:30:10.113Z,5.60
2019-03-16T07:32:39.783Z,5.50
2019-03-16T07:35:09.559Z,5.50
2019-03-16T07:37:39.216Z,5.60
2019-03-16T07:40:09.122Z,5.70
2019-03-16T07:42:38.818Z,5.70
2019-03-16T07:45:09.279Z,5.70
2019-03-16T07:47:38.966Z,5.80
2019-03-16T07:50:08.626Z,5.90
2019-03-16T07:52:38.572Z,6.00
2019-03-16T07:55:08.473Z,6.00
2019-03-16T07:57:40.357Z,6.10
2019-03-16T08:00:09.539Z,6.20
2019-03-16T08:02:39.149Z,6.30
2019-03-16T08:05:18.056Z,6.40
2019-03-16T08:07:40.242Z,6.50
2019-03-16T08:10:09.971Z,6.60
2019-03-16T08:12:39.635Z,6.70
2019-03-16T08:15:09.395Z,6.90
2019-03-16T08:17:39.027Z,7.00
2019-03-16T08:20:08.838Z,7.20
2019-03-16T08:22:38.457Z,7.30
2019-03-16T08:25:08.298Z,7.40
2019-03-16T08:27:37.946Z,7.50
2019-03-16T08:30:09.180Z,7.60
2019-03-16T08:32:38.792Z,7.70
2019-03-16T08:35:08.677Z,7.80
2019-03-16T08:37:38.344Z,7.90
2019-03-16T08:40:08.199Z,8.00
2019-03-16T08:42:37.874Z,8.10
2019-03-16T08:45:07.707Z,8.10
2019-03-16T08:47:37.357Z,8.30
2019-03-16T08:50:07.095Z,8.40
2019-03-16T08:52:36.723Z,8.40
2019-03-16T08:55:06.578Z,8.40
2019-03-16T08:57:36.228Z,8.60
2019-03-16T09:00:06.307Z,8.60
2019-03-16T09:02:35.946Z,8.70
2019-03-16T09:05:06.176Z,8.80
2019-03-16T09:07:35.774Z,8.80
2019-03-16T09:10:05.604Z,8.90
2019-03-16T09:12:35.269Z,8.90
2019-03-16T09:15:05.250Z,9.00
2019-03-16T09:17:34.843Z,9.00
2019-03-16T09:20:04.880Z,9.10
2019-03-16T09:22:34.491Z,9.10
2019-03-16T09:25:04.257Z,9.20
2019-03-16T09:27:33.899Z,9.20
2019-03-16T09:30:03.647Z,9.30
2019-03-16T09:32:33.265Z,9.40
2019-03-16T09:35:03.851Z,9.50
2019-03-16T09:37:33.502Z,9.70
2019-03-16T09:40:03.107Z,9.80
2019-03-16T09:42:33.747Z,9.90
2019-03-16T09:45:03.389Z,10.00
2019-03-16T09:47:33.094Z,10.10
2019-03-16T09:50:02.839Z,10.30
2019-03-16T09:52:32.466Z,10.50
2019-03-16T09:55:02.206Z,10.70
2019-03-16T09:57:31.842Z,10.80
2019-03-16T10:00:01.502Z,11.00
2019-03-16T10:02:31.238Z,11.20
2019-03-16T10:05:00.918Z,11.30
2019-03-16T10:07:30.682Z,11.60
2019-03-16T10:10:00.380Z,11.80
2019-03-16T10:12:30.271Z,12.00
2019-03-16T10:15:01.087Z,12.20
2019-03-16T10:17:32.369Z,12.40
2019-03-16T10:20:02.034Z,12.50
2019-03-16T10:22:31.671Z,12.70
2019-03-16T10:25:01.275Z,12.80
2019-03-16T10:27:30.920Z,13.00
2019-03-16T10:30:00.605Z,13.30
2019-03-16T10:32:30.235Z,13.60
2019-03-16T10:34:59.914Z,13.70
2019-03-16T10:37:29.516Z,13.80
2019-03-16T10:39:59.226Z,13.90
2019-03-16T10:42:28.924Z,14.00
2019-03-16T10:44:58.533Z,14.30
2019-03-16T10:47:28.152Z,14.60
2019-03-16T10:49:59.218Z,14.80
2019-03-16T10:52:28.976Z,14.90
2019-03-16T10:54:58.700Z,15.20
2019-03-16T10:57:28.334Z,15.30
2019-03-16T10:59:58.046Z,15.60
2019-03-16T11:02:27.753Z,15.70
2019-03-16T11:04:57.359Z,15.90
2019-03-16T11:07:27.026Z,16.00
2019-03-16T11:09:56.708Z,16.20
2019-03-16T11:12:26.430Z,16.40
2019-03-16T11:14:56.194Z,16.60
2019-03-16T11:17:25.830Z,16.90
2019-03-16T11:19:55.470Z,17.20
2019-03-16T11:22:25.209Z,17.40
2019-03-16T11:24:54.837Z,17.70
2019-03-16T11:27:24.476Z,18.00
2019-03-16T11:29:54.190Z,18.30
2019-03-16T11:32:23.860Z,18.60
2019-03-16T11:34:53.518Z,18.80
2019-03-16T11:37:23.175Z,19.10
2019-03-16T11:39:52.922Z,19.30
2019-03-16T11:42:22.745Z,19.60
2019-03-16T11:44:52.371Z,19.70
2019-03-16T11:47:21.975Z,19.80
2019-03-16T11:49:51.646Z,20.10
2019-03-16T11:52:21.346Z,20.20
2019-03-16T11:54:50.957Z,20.40
2019-03-16T11:57:20.980Z,20.70
2019-03-16T11:59:50.637Z,20.80
2019-03-16T12:02:20.268Z,21.00
2019-03-16T12:04:49.953Z,21.20
2019-03-16T12:07:19.647Z,21.40
2019-03-16T12:09:49.281Z,21.60
2019-03-16T12:12:19.048Z,21.80
2019-03-16T12:14:48.672Z,22.20
2019-03-16T12:17:18.267Z,22.70
2019-03-16T12:19:47.938Z,23.10
2019-03-16T12:22:17.552Z,23.40
2019-03-16T12:24:47.201Z,23.80
2019-03-16T12:27:16.912Z,24.20
2019-03-16T12:29:46.542Z,24.50
2019-03-16T12:32:16.172Z,24.60
2019-03-16T12:34:45.835Z,24.80
2019-03-16T12:37:15.467Z,25.10
2019-03-16T12:39:45.086Z,25.50
2019-03-16T12:42:14.814Z,25.80
2019-03-16T12:44:44.444Z,26.00
2019-03-16T12:47:17.404Z,26.20
2019-03-16T12:49:48.295Z,26.50
2019-03-16T12:52:19.029Z,26.50
2019-03-16T12:54:51.003Z,26.50
2019-03-16T12:57:20.726Z,26.50
2019-03-16T12:59:50.352Z,26.70
2019-03-16T13:02:19.998Z,27.10
2019-03-16T13:04:49.679Z,27.40
2019-03-16T13:07:19.315Z,27.70
2019-03-16T13:09:48.931Z,27.90
2019-03-16T13:12:18.557Z,28.20
2019-03-16T13:14:48.231Z,28.30
2019-03-16T13:17:17.880Z,28.40
2019-03-16T13:19:47.560Z,28.40
2019-03-16T13:22:19.188Z,28.70
2019-03-16T13:24:48.802Z,29.00
2019-03-16T13:27:20.247Z,29.30
2019-03-16T13:29:58.932Z,29.40
2019-03-16T13:32:26.651Z,29.70
2019-03-16T13:34:56.282Z,30.00
2019-03-16T13:37:25.908Z,30.10
2019-03-16T13:39:55.580Z,30.10
2019-03-16T13:42:25.179Z,30.30
2019-03-16T13:44:56.101Z,30.40
2019-03-16T13:47:25.802Z,30.70
2019-03-16T13:49:55.428Z,31.10
2019-03-16T13:52:26.043Z,31.40
2019-03-16T13:54:56.695Z,31.90
2019-03-16T13:57:26.521Z,32.10
2019-03-16T13:59:56.171Z,32.30
2019-03-16T14:02:25.867Z,32.60
2019-03-16T14:04:55.559Z,33.00
2019-03-16T14:07:25.451Z,33.40
2019-03-16T14:09:55.092Z,33.70
2019-03-16T14:12:24.746Z,34.10
2019-03-16T14:14:54.696Z,34.60
2019-03-16T14:17:24.514Z,34.80
2019-03-16T14:19:54.190Z,35.00
2019-03-16T14:22:23.861Z,34.70
2019-03-16T14:24:53.497Z,34.60
2019-03-16T14:27:23.112Z,34.50
2019-03-16T14:29:52.711Z,34.20
2019-03-16T14:32:22.994Z,34.10
2019-03-16T14:34:52.708Z,34.00
2019-03-16T14:37:22.777Z,33.50
2019-03-16T14:39:52.473Z,33.20
2019-03-16T14:42:22.081Z,32.90
2019-03-16T14:44:51.722Z,32.40
2019-03-16T14:47:22.046Z,32.10
2019-03-16T14:49:51.704Z,32.30
2019-03-16T14:52:21.788Z,32.60
2019-03-16T14:54:51.468Z,33.00
2019-03-16T14:57:23.298Z,33.10
2019-03-16T14:59:53.017Z,33.20
2019-03-16T15:02:23.808Z,32.60
2019-03-16T15:04:53.409Z,32.50
2019-03-16T15:07:26.864Z,32.50
2019-03-16T15:09:59.062Z,32.20
2019-03-16T15:12:28.768Z,31.70
2019-03-16T15:14:58.430Z,31.10
2019-03-16T15:17:30.307Z,30.50
2019-03-16T15:19:59.706Z,30.10
2019-03-16T15:22:29.396Z,29.60
2019-03-16T15:24:59.214Z,29.10
2019-03-16T15:27:29.074Z,28.70
2019-03-16T15:29:58.769Z,28.30
2019-03-16T15:32:28.417Z,27.80
2019-03-16T15:34:58.128Z,27.40
2019-03-16T15:37:27.864Z,27.00
2019-03-16T15:39:57.590Z,26.60
2019-03-16T15:42:30.268Z,26.40
2019-03-16T15:45:02.172Z,26.10
2019-03-16T15:47:31.926Z,25.90
2019-03-16T15:50:01.967Z,25.80
2019-03-16T15:52:32.009Z,25.50
2019-03-16T15:55:01.654Z,25.30
2019-03-16T15:57:31.249Z,25.00
2019-03-16T16:00:01.320Z,24.90
2019-03-16T16:02:31.220Z,24.60
2019-03-16T16:05:00.879Z,24.40
2019-03-16T16:07:30.722Z,24.20
2019-03-16T16:10:00.448Z,24.00
2019-03-16T16:12:30.177Z,23.80
2019-03-16T16:15:02.038Z,23.60
2019-03-16T16:17:31.771Z,23.40
2019-03-16T16:20:07.908Z,23.20
2019-03-16T16:22:37.547Z,23.00
2019-03-16T16:25:07.699Z,22.90
2019-03-16T16:27:40.466Z,22.70
2019-03-16T16:30:11.280Z,22.50
2019-03-16T16:32:40.930Z,22.40
2019-03-16T16:35:15.249Z,22.20
2019-03-16T16:37:46.193Z,22.00
2019-03-16T16:40:17.467Z,21.80
2019-03-16T16:42:49.287Z,21.60
2019-03-16T16:45:18.928Z,21.50
2019-03-16T16:47:50.550Z,21.30
2019-03-16T16:50:21.553Z,21.20
2019-03-16T16:52:52.674Z,21.20
2019-03-16T16:55:22.307Z,21.10
2019-03-16T16:57:51.944Z,21.00
2019-03-16T17:00:21.559Z,20.90
2019-03-16T17:02:51.211Z,20.70
2019-03-16T17:05:22.983Z,20.60
2019-03-16T17:07:52.615Z,20.50
2019-03-16T17:10:22.284Z,20.40
2019-03-16T17:12:51.902Z,20.30
2019-03-16T17:15:21.612Z,20.20
2019-03-16T17:17:51.376Z,20.00
2019-03-16T17:20:23.297Z,19.70
2019-03-16T17:22:52.927Z,19.60
2019-03-16T17:25:22.561Z,19.40
2019-03-16T17:27:54.445Z,19.30
2019-03-16T17:30:23.479Z,19.20
2019-03-16T17:32:55.443Z,19.10
2019-03-16T17:35:25.048Z,18.90
2019-03-16T17:37:54.670Z,18.90
2019-03-16T17:40:25.730Z,18.80
2019-03-16T17:42:55.314Z,18.70
2019-03-16T17:45:25.048Z,18.60
2019-03-16T17:47:54.800Z,18.40
2019-03-16T17:50:24.512Z,18.30
2019-03-16T17:52:54.166Z,18.10
2019-03-16T17:55:23.788Z,18.00
2019-03-16T17:57:53.443Z,17.80
2019-03-16T18:00:23.195Z,17.70
2019-03-16T18:02:52.890Z,17.60
2019-03-16T18:05:22.683Z,17.50
2019-03-16T18:07:52.459Z,17.40
2019-03-16T18:10:22.413Z,17.30
2019-03-16T18:12:52.028Z,17.20
2019-03-16T18:15:21.730Z,17.20
2019-03-16T18:17:51.599Z,17.10
2019-03-16T18:20:21.466Z,17.00
2019-03-16T18:22:51.108Z,16.90
2019-03-16T18:25:20.860Z,16.90
2019-03-16T18:27:50.521Z,16.80
2019-03-16T18:30:20.191Z,16.70
2019-03-16T18:32:49.955Z,16.60
2019-03-16T18:35:19.732Z,16.50
2019-03-16T18:37:49.344Z,16.40
2019-03-16T18:40:18.935Z,16.20
2019-03-16T18:42:48.568Z,16.10
2019-03-16T18:45:18.172Z,16.00
2019-03-16T18:47:47.891Z,15.90
2019-03-16T18:50:17.590Z,15.80
2019-03-16T18:52:50.583Z,15.80
2019-03-16T18:55:20.228Z,15.70
2019-03-16T18:57:50.122Z,15.60
2019-03-16T19:00:19.966Z,15.40
2019-03-16T19:02:49.644Z,15.20
2019-03-16T19:05:19.259Z,15.10
2019-03-16T19:07:48.880Z,15.00
2019-03-16T19:10:18.547Z,15.00
2019-03-16T19:12:48.261Z,14.90
2019-03-16T19:15:18.231Z,14.90
2019-03-16T19:17:58.137Z,14.80
2019-03-16T19:20:19.185Z,14.70
2019-03-16T19:22:48.833Z,14.60
2019-03-16T19:25:18.508Z,14.60
2019-03-16T19:27:48.164Z,14.60
2019-03-16T19:30:18.222Z,14.70
2019-03-16T19:32:47.928Z,14.70
2019-03-16T19:35:17.598Z,14.70
2019-03-16T19:37:47.198Z,14.60
2019-03-16T19:40:16.929Z,14.60
2019-03-16T19:42:47.290Z,14.40
2019-03-16T19:45:17.076Z,14.30
2019-03-16T19:47:47.761Z,14.10
2019-03-16T19:50:17.505Z,14.00
2019-03-16T19:52:47.124Z,13.90
2019-03-16T19:55:17.192Z,13.70
2019-03-16T19:57:49.786Z,13.70
2019-03-16T20:00:19.639Z,13.60
2019-03-16T20:02:51.360Z,13.60
2019-03-16T20:05:21.674Z,13.50
2019-03-16T20:07:51.324Z,13.40
2019-03-16T20:10:21.015Z,13.30
2019-03-16T20:12:53.244Z,13.20
2019-03-16T20:15:22.059Z,13.20
2019-03-16T20:17:51.652Z,13.10
2019-03-16T20:20:21.317Z,13.00
2019-03-16T20:22:51.363Z,13.00
2019-03-16T20:25:21.039Z,12.90
2019-03-16T20:27:50.841Z,12.80
2019-03-16T20:30:26.473Z,12.80
2019-03-16T20:33:03.082Z,12.80
2019-03-16T20:35:23.159Z,12.80
2019-03-16T20:37:52.790Z,12.80
2019-03-16T20:40:22.432Z,12.70
2019-03-16T20:42:52.064Z,12.60
2019-03-16T20:45:21.949Z,12.50
2019-03-16T20:47:51.585Z,12.40
2019-03-16T20:50:21.403Z,12.40
2019-03-16T20:52:51.271Z,12.40
2019-03-16T20:55:20.910Z,12.40
2019-03-16T20:57:50.631Z,12.40
2019-03-16T21:00:20.310Z,12.40
2019-03-16T21:02:49.911Z,12.30
2019-03-16T21:05:19.626Z,12.20
2019-03-16T21:07:49.784Z,12.10
2019-03-16T21:10:19.391Z,12.10
2019-03-16T21:12:49.546Z,12.00
2019-03-16T21:15:20.334Z,11.90
2019-03-16T21:17:50.455Z,11.80
2019-03-16T21:20:20.197Z,11.70
2019-03-16T21:22:49.799Z,11.70
2019-03-16T21:25:19.434Z,11.60
2019-03-16T21:27:49.254Z,11.60
2019-03-16T21:30:19.395Z,11.50
2019-03-16T21:32:49.501Z,11.40
2019-03-16T21:35:19.149Z,11.30
2019-03-16T21:37:48.802Z,11.20
2019-03-16T21:40:18.422Z,11.20
2019-03-16T21:42:48.129Z,11.20
2019-03-16T21:45:17.800Z,11.20
2019-03-16T21:47:59.129Z,11.20
2019-03-16T21:50:18.881Z,11.10
2019-03-16T21:52:48.580Z,11.00
2019-03-16T21:55:18.220Z,11.00
2019-03-16T21:57:47.870Z,11.00
2019-03-16T22:00:18.256Z,10.90
2019-03-16T22:02:47.912Z,10.80
2019-03-16T22:05:17.548Z,10.70
2019-03-16T22:07:48.013Z,10.60
2019-03-16T22:10:18.146Z,10.60
2019-03-16T22:12:47.773Z,10.50
2019-03-16T22:15:17.554Z,10.40
2019-03-16T22:17:47.175Z,10.30
2019-03-16T22:20:16.822Z,10.30
2019-03-16T22:22:46.483Z,10.30
2019-03-16T22:25:16.324Z,10.20
2019-03-16T22:27:46.095Z,10.10
2019-03-16T22:30:15.886Z,10.00
2019-03-16T22:32:45.558Z,10.00
2019-03-16T22:35:15.202Z,9.90
2019-03-16T22:37:44.850Z,9.90
2019-03-16T22:40:14.496Z,9.80
2019-03-16T22:42:44.111Z,9.80
2019-03-16T22:45:13.952Z,9.70
2019-03-16T22:47:43.583Z,9.70
2019-03-16T22:50:13.199Z,9.60
2019-03-16T22:52:42.875Z,9.60
2019-03-16T22:55:15.481Z,9.50
2019-03-16T22:57:43.737Z,9.50
2019-03-16T23:00:13.776Z,9.50
2019-03-16T23:02:43.395Z,9.50
2019-03-16T23:05:13.246Z,9.40
2019-03-16T23:07:42.883Z,9.30
2019-03-16T23:10:12.621Z,9.20
2019-03-16T23:12:42.250Z,9.20
2019-03-16T23:15:11.896Z,9.10
2019-03-16T23:17:41.529Z,9.10
2019-03-16T23:20:11.255Z,9.00
2019-03-16T23:22:41.275Z,9.00
2019-03-16T23:25:10.900Z,9.00
2019-03-16T23:27:40.564Z,8.90
2019-03-16T23:30:10.552Z,8.90
2019-03-16T23:32:40.249Z,8.90
2019-03-16T23:35:09.990Z,8.80
2019-03-16T23:37:39.624Z,8.80
2019-03-16T23:40:09.475Z,8.80
2019-03-16T23:42:39.428Z,8.70
2019-03-16T23:45:09.514Z,8.70
2019-03-16T23:47:39.167Z,8.70
2019-03-16T23:50:09.040Z,8.60
2019-03-16T23:52:38.689Z,8.60
2019-03-16T23:55:08.936Z,8.50
2019-03-16T23:57:38.562Z,8.50
